Terminal Aerodrome Forecast
Issued by NWS

Home | Current Version | Previous Version | Text Only | Print | Product List | Glossary On
Versions: 1 2 3 4 5 6 7 8 9 10 11 12 13 14 15 16 17 18 19
000
FTUS43 KILX 291721
TAFCMI
TAF
KCMI 291721Z 2918/3018 02009KT P6SM VCSH SCT025 BKN040
      TEMPO 2918/2920 BKN025
     FM300000 01007KT P6SM BKN060
     FM300400 01008KT P6SM VCSH BKN020
     FM300600 01009KT 5SM -SHRA BR OVC008=

USA.gov is the U.S. government's official web portal to all federal, state and local government web resources and services.